Time;durP1;ratioP1;P1;durP2;ratioP2;P2;SDS_P1;SDS_P2;PMS_P1;PMS_P2;Temp;Humidity;BMP_temperature;BMP_pressure;BME280_temperature;BME280_humidity;BME280_pressure;Samples;Min_cycle;Max_cycle;Signal;HPM_P1;HPM_P2
2022/06/09 00:00:45;;;;;;;28.27;10.05;;;;;;;11.14;59.30;100936.88;5063261;28;20087;-60
2022/06/09 00:03:20;;;;;;;20.15;7.80;;;;;;;11.29;59.61;100925.44;5063704;28;20040;-61
2022/06/09 00:05:51;;;;;;;14.77;8.43;;;;;;;11.43;59.23;100939.22;5063392;28;20608;-62
2022/06/09 00:08:22;;;;;;;26.08;8.35;;;;;;;11.45;58.58;100934.84;5062672;28;20053;-61
2022/06/09 00:10:56;;;;;;;15.63;8.45;;;;;;;11.54;59.09;100936.53;5062656;28;20217;-61
2022/06/09 00:13:27;;;;;;;25.30;9.13;;;;;;;11.57;58.10;100936.50;5063030;28;20083;-60
2022/06/09 00:15:57;;;;;;;16.35;8.68;;;;;;;11.75;58.46;100945.91;5063032;28;20056;-60
2022/06/09 00:18:29;;;;;;;16.83;9.15;;;;;;;11.80;58.24;100939.72;5062377;28;20067;-61
2022/06/09 00:21:00;;;;;;;27.30;8.45;;;;;;;11.98;57.64;100938.72;5062973;28;21130;-61
2022/06/09 00:23:31;;;;;;;19.35;8.88;;;;;;;11.92;57.87;100944.00;5063254;28;20064;-61
2022/06/09 00:26:02;;;;;;;14.98;9.18;;;;;;;11.51;56.95;100898.19;5063720;28;20056;-61
2022/06/09 00:28:32;;;;;;;21.65;9.05;;;;;;;11.74;57.84;100938.97;5063512;28;20052;-61
2022/06/09 00:31:03;;;;;;;31.85;9.40;;;;;;;11.81;57.67;100938.00;5064186;28;20116;-61
2022/06/09 00:33:35;;;;;;;17.10;8.70;;;;;;;11.96;57.61;100940.50;5066992;28;20104;-61
2022/06/09 00:36:06;;;;;;;23.95;9.70;;;;;;;12.02;57.99;100929.94;5064881;28;20088;-61
2022/06/09 00:38:37;;;;;;;72.50;12.20;;;;;;;12.09;57.38;100935.97;5067058;28;20045;-63
2022/06/09 00:41:07;;;;;;;13.88;8.30;;;;;;;12.22;57.86;100941.94;5066999;28;20455;-61
2022/06/09 00:43:38;;;;;;;35.90;9.75;;;;;;;12.25;57.90;100931.41;5066684;28;20120;-60
2022/06/09 00:46:16;;;;;;;35.03;9.18;;;;;;;12.30;57.43;100940.06;5067529;28;20128;-61
2022/06/09 00:48:52;;;;;;;20.58;10.02;;;;;;;12.39;56.90;100929.47;5067178;28;20119;-61
2022/06/09 00:51:32;;;;;;;17.92;8.98;;;;;;;12.54;56.47;100933.66;5066286;28;20162;-61
2022/06/09 00:54:06;;;;;;;20.52;9.57;;;;;;;13.16;55.71;100944.09;5066329;28;20037;-61
2022/06/09 00:56:55;;;;;;;16.40;8.93;;;;;;;13.19;54.74;100912.56;5066837;28;20075;-61
2022/06/09 00:59:28;;;;;;;16.55;9.68;;;;;;;13.41;54.43;100927.97;5066641;28;20107;-60
2022/06/09 01:02:01;;;;;;;17.48;9.52;;;;;;;13.77;52.86;100965.81;5066256;28;20067;-60
2022/06/09 01:04:35;;;;;;;21.73;9.85;;;;;;;13.74;53.41;100969.38;5065923;28;20118;-61
2022/06/09 01:07:10;;;;;;;17.60;9.48;;;;;;;13.79;52.97;100975.41;5066599;28;20112;-60
2022/06/09 01:09:40;;;;;;;21.20;8.60;;;;;;;13.63;52.11;100973.97;5066178;28;20059;-62
2022/06/09 01:12:26;;;;;;;14.18;8.90;;;;;;;13.38;52.61;100948.13;5066867;28;21036;-61
2022/06/09 01:15:00;;;;;;;18.00;8.85;;;;;;;13.40;53.82;100963.84;5066046;28;20041;-61
2022/06/09 01:17:44;;;;;;;22.05;9.55;;;;;;;13.40;53.29;100968.22;5065524;28;20056;-62
2022/06/09 01:20:32;;;;;;;18.83;9.43;;;;;;;13.51;53.32;100976.81;5065293;28;20067;-61
2022/06/09 01:23:32;;;;;;;16.25;9.15;;;;;;;13.61;53.80;100975.75;5066254;28;20098;-61
2022/06/09 01:26:20;;;;;;;;;;;;;;;13.54;53.19;100968.88;5066723;28;20116;-61
2022/06/09 01:29:27;;;;;;;20.80;9.18;;;;;;;13.42;52.82;100976.94;5066368;28;20481;-61
2022/06/09 01:32:05;;;;;;;14.13;9.40;;;;;;;13.32;53.62;100940.34;5065917;28;20052;-60
2022/06/09 01:34:44;;;;;;;18.60;8.83;;;;;;;13.85;52.67;100965.69;5065885;28;20490;-61
2022/06/09 01:37:17;;;;;;;17.17;9.30;;;;;;;13.57;52.68;100882.16;5065108;28;20594;-60
2022/06/09 01:39:50;;;;;;;15.37;8.70;;;;;;;14.22;52.11;100961.44;5066785;28;20618;-61
2022/06/09 01:42:27;;;;;;;18.53;8.83;;;;;;;14.27;52.41;100973.63;5064901;28;20521;-61
2022/06/09 01:45:06;;;;;;;18.05;9.15;;;;;;;14.27;51.78;100965.75;5066787;28;20631;-61
2022/06/09 01:47:43;;;;;;;16.15;8.70;;;;;;;14.19;51.76;100968.53;5065683;28;20386;-61
2022/06/09 01:50:23;;;;;;;22.60;8.70;;;;;;;14.39;52.58;100962.88;5064788;28;20044;-61
2022/06/09 01:52:55;;;;;;;18.83;8.43;;;;;;;14.56;52.88;100955.50;5064293;28;20283;-61
2022/06/09 01:55:27;;;;;;;13.53;8.70;;;;;;;14.58;51.60;100969.50;5065094;28;20283;-60
2022/06/09 01:58:02;;;;;;;19.13;8.77;;;;;;;14.35;51.08;100971.69;5065165;28;20486;-59
2022/06/09 02:00:33;;;;;;;13.03;8.67;;;;;;;14.14;51.68;100971.25;5065051;28;21417;-59
2022/06/09 02:03:08;;;;;;;20.17;9.77;;;;;;;14.27;52.02;100968.38;5064901;28;20406;-61
2022/06/09 02:05:42;;;;;;;14.40;7.67;;;;;;;14.40;52.26;100957.59;5065214;28;20350;-60
2022/06/09 02:08:16;;;;;;;17.97;8.10;;;;;;;14.74;52.23;100963.91;5065249;28;20938;-60
2022/06/09 02:10:49;;;;;;;16.27;9.10;;;;;;;14.66;51.13;100957.03;5065412;28;20354;-61
2022/06/09 02:13:23;;;;;;;21.07;9.30;;;;;;;14.66;51.76;100951.78;5064807;28;20508;-60
2022/06/09 02:15:57;;;;;;;16.97;9.00;;;;;;;14.69;51.51;100944.72;5065090;28;20359;-60
2022/06/09 02:18:33;;;;;;;15.17;9.27;;;;;;;14.48;51.48;100939.00;5064762;28;20302;-61
2022/06/09 02:21:08;;;;;;;14.00;8.00;;;;;;;14.44;52.25;100950.47;5064217;28;20362;-60
2022/06/09 02:23:39;;;;;;;13.60;8.60;;;;;;;14.34;51.30;100938.44;5064318;28;20275;-60
2022/06/09 02:26:09;;;;;;;15.07;8.83;;;;;;;14.21;51.90;100948.34;5064623;28;20594;-60
2022/06/09 02:28:39;;;;;;;16.70;8.90;;;;;;;14.33;52.65;100949.88;5064806;28;20295;-61
2022/06/09 02:31:10;;;;;;;17.07;8.83;;;;;;;14.52;52.03;100931.91;5064318;28;20287;-60
2022/06/09 02:33:43;;;;;;;15.97;9.47;;;;;;;14.70;52.50;100946.44;5065065;28;20283;-60
2022/06/09 02:36:13;;;;;;;17.37;9.73;;;;;;;14.52;52.43;100950.31;5065295;28;20981;-61
2022/06/09 02:38:44;;;;;;;20.87;10.50;;;;;;;14.46;52.14;100951.31;5065066;28;20299;-60
2022/06/09 02:41:15;;;;;;;19.50;9.77;;;;;;;14.52;52.77;100950.31;5065229;28;20298;-60
2022/06/09 02:43:45;;;;;;;26.73;10.73;;;;;;;14.38;52.00;100945.38;5064691;28;20284;-60
2022/06/09 02:46:16;;;;;;;15.77;9.20;;;;;;;14.39;52.70;100937.44;5063699;28;20365;-61
2022/06/09 02:48:48;;;;;;;16.20;9.17;;;;;;;14.38;53.04;100919.94;5064182;28;20683;-60
2022/06/09 02:51:25;;;;;;;18.07;10.20;;;;;;;14.43;52.54;100922.47;5065582;28;20975;-60
2022/06/09 02:53:56;;;;;;;16.73;9.83;;;;;;;14.56;52.78;100929.22;5064544;28;20295;-61
2022/06/09 02:56:27;;;;;;;19.93;9.77;;;;;;;14.43;52.34;100927.72;5064405;28;20291;-60
2022/06/09 02:58:57;;;;;;;24.87;9.47;;;;;;;14.50;52.28;100938.97;5064333;28;20310;-60
2022/06/09 03:01:30;;;;;;;14.93;8.70;;;;;;;14.71;52.28;100932.41;5063988;28;20349;-60
2022/06/09 03:04:02;;;;;;;18.23;9.30;;;;;;;14.55;51.25;100895.94;5063836;28;20302;-60
2022/06/09 03:06:33;;;;;;;23.03;10.10;;;;;;;14.81;51.79;100939.19;5064476;28;20597;-60
2022/06/09 03:09:04;;;;;;;18.73;9.60;;;;;;;14.82;50.86;100925.13;5064141;28;20275;-60
2022/06/09 03:11:34;;;;;;;20.47;9.90;;;;;;;14.84;51.62;100931.22;5063605;28;20273;-60
2022/06/09 03:14:05;;;;;;;18.93;10.00;;;;;;;14.91;51.21;100935.44;5063315;28;20295;-60
2022/06/09 03:16:35;;;;;;;21.73;10.67;;;;;;;14.97;51.54;100927.38;5063781;28;20336;-60
2022/06/09 03:19:07;;;;;;;15.87;10.40;;;;;;;15.10;51.37;100925.31;5063968;28;20660;-60
2022/06/09 03:21:38;;;;;;;21.27;10.50;;;;;;;15.24;51.79;100922.34;5063877;28;20333;-60
2022/06/09 03:24:09;;;;;;;16.50;10.57;;;;;;;15.29;51.62;100923.09;5063847;28;20275;-60
2022/06/09 03:26:39;;;;;;;19.50;10.27;;;;;;;15.50;51.49;100914.66;5063838;28;20478;-61
2022/06/09 03:29:10;;;;;;;18.93;9.20;;;;;;;15.54;50.66;100895.22;5062474;28;20513;-60
2022/06/09 03:31:40;;;;;;;20.37;9.70;;;;;;;15.65;50.39;100915.13;5063691;28;20294;-60
2022/06/09 03:34:12;;;;;;;20.07;10.10;;;;;;;15.75;50.79;100908.78;5063199;28;20320;-60
2022/06/09 03:36:44;;;;;;;21.27;11.23;;;;;;;15.63;49.88;100909.06;5063570;28;20496;-60
2022/06/09 03:39:15;;;;;;;23.57;11.80;;;;;;;15.52;50.09;100902.31;5063771;28;20332;-60
2022/06/09 03:41:46;;;;;;;19.07;10.77;;;;;;;15.40;50.20;100907.91;5063457;28;20289;-60
2022/06/09 03:44:16;;;;;;;20.40;12.17;;;;;;;15.60;50.55;100909.13;5062952;28;20283;-60
2022/06/09 03:46:46;;;;;;;19.23;11.17;;;;;;;15.63;50.30;100919.59;5063671;28;20287;-60
2022/06/09 03:49:18;;;;;;;18.03;11.03;;;;;;;15.61;50.18;100924.03;5063576;28;20286;-60
2022/06/09 03:51:49;;;;;;;24.77;11.23;;;;;;;15.63;50.58;100930.13;5062988;28;20908;-60
2022/06/09 03:54:19;;;;;;;31.43;12.40;;;;;;;15.61;50.78;100924.91;5063112;28;20288;-60
2022/06/09 03:56:51;;;;;;;28.50;10.97;;;;;;;15.77;51.16;100928.00;5062567;28;20616;-61
2022/06/09 03:59:21;;;;;;;23.63;10.80;;;;;;;15.64;49.27;100932.72;5063564;28;20349;-60
2022/06/09 04:01:52;;;;;;;19.97;12.53;;;;;;;15.40;50.02;100934.25;5063601;28;20278;-60
2022/06/09 04:04:24;;;;;;;20.60;11.83;;;;;;;15.38;51.38;100930.78;5063538;28;20292;-60
2022/06/09 04:06:54;;;;;;;24.83;12.10;;;;;;;15.37;50.02;100922.91;5063247;28;20531;-60
2022/06/09 04:09:24;;;;;;;22.10;11.43;;;;;;;15.32;51.49;100928.28;5063471;28;20291;-60
2022/06/09 04:11:55;;;;;;;18.67;10.57;;;;;;;15.42;50.67;100916.59;5063578;28;20370;-60
2022/06/09 04:14:25;;;;;;;18.97;10.77;;;;;;;15.43;51.01;100913.09;5063269;28;20291;-60
2022/06/09 04:16:57;;;;;;;18.23;11.03;;;;;;;15.31;50.56;100902.88;5062787;28;20578;-60
2022/06/09 04:19:29;;;;;;;22.57;12.27;;;;;;;15.32;50.58;100899.31;5062330;28;20365;-61
2022/06/09 04:21:59;;;;;;;20.93;11.07;;;;;;;15.29;50.06;100894.13;5062764;28;20290;-60
2022/06/09 04:24:29;;;;;;;26.93;11.90;;;;;;;15.34;50.51;100889.63;5062069;28;20290;-60
2022/06/09 04:27:00;;;;;;;15.57;11.00;;;;;;;15.43;51.03;100880.63;5023934;28;20332;-59
2022/06/09 04:29:31;;;;;;;19.50;10.53;;;;;;;15.58;50.57;100879.34;5022567;28;20293;-60
2022/06/09 04:32:01;;;;;;;21.33;11.27;;;;;;;15.60;50.14;100877.50;5022503;28;20295;-60
2022/06/09 04:34:33;;;;;;;18.93;10.43;;;;;;;15.64;50.21;100881.81;5023175;28;20303;-59
2022/06/09 04:37:04;;;;;;;17.70;11.80;;;;;;;15.47;49.57;100877.84;5022787;28;20293;-60
2022/06/09 04:39:34;;;;;;;23.97;12.13;;;;;;;15.35;50.49;100878.19;5022830;28;20293;-60
2022/06/09 04:42:05;;;;;;;38.60;13.43;;;;;;;15.36;51.37;100873.78;5022646;28;20289;-59
2022/06/09 04:44:36;;;;;;;20.07;11.90;;;;;;;15.59;51.50;100875.81;5022715;28;20284;-60
2022/06/09 04:47:06;;;;;;;34.00;12.37;;;;;;;15.45;49.94;100866.50;5021923;28;20324;-59
2022/06/09 04:49:38;;;;;;;27.80;13.80;;;;;;;15.12;50.60;100854.22;5022372;28;20595;-60
2022/06/09 04:52:09;;;;;;;20.93;11.57;;;;;;;15.01;50.67;100883.44;5021532;28;20276;-59
2022/06/09 04:54:43;;;;;;;24.83;12.17;;;;;;;14.73;51.63;100888.53;5021705;28;20277;-59
2022/06/09 04:57:13;;;;;;;20.57;12.47;;;;;;;14.70;51.40;100888.56;5021132;28;20292;-59
2022/06/09 04:59:43;;;;;;;22.23;12.60;;;;;;;14.70;52.01;100893.84;5022191;28;20310;-59
2022/06/09 05:02:14;;;;;;;21.13;12.10;;;;;;;14.76;52.00;100889.31;5020450;28;20280;-59
2022/06/09 05:04:46;;;;;;;21.67;12.33;;;;;;;15.07;52.00;100899.94;5022749;28;20283;-59
2022/06/09 05:07:16;;;;;;;24.27;12.23;;;;;;;14.80;51.00;100904.13;5021937;28;20318;-59
2022/06/09 05:09:46;;;;;;;24.10;12.47;;;;;;;14.79;52.25;100909.41;5022497;28;20296;-59
2022/06/09 05:12:17;;;;;;;24.43;12.20;;;;;;;15.20;52.63;100904.91;5021548;28;20502;-59
2022/06/09 05:14:47;;;;;;;42.30;13.20;;;;;;;15.57;51.89;100914.47;5022227;28;20280;-60
2022/06/09 05:17:17;;;;;;;19.70;11.57;;;;;;;15.80;50.56;100904.22;5020941;28;20306;-60
2022/06/09 05:19:49;;;;;;;26.10;11.07;;;;;;;15.89;50.03;100911.00;5025996;28;20583;-60
2022/06/09 05:22:20;;;;;;;31.57;12.63;;;;;;;15.93;50.21;100918.78;5026147;28;20281;-60
2022/06/09 05:24:50;;;;;;;19.70;11.23;;;;;;;16.04;49.42;100921.09;5025167;28;20293;-60
2022/06/09 05:27:21;;;;;;;21.20;11.97;;;;;;;16.02;48.19;100911.50;5025258;28;20431;-60
2022/06/09 05:29:51;;;;;;;21.30;11.60;;;;;;;15.90;48.99;100908.34;5025984;28;20285;-61
2022/06/09 05:32:22;;;;;;;21.20;10.67;;;;;;;16.20;49.60;100900.47;5024277;28;20296;-60
2022/06/09 05:34:54;;;;;;;20.50;10.67;;;;;;;16.39;49.55;100901.59;5023582;28;20301;-60
2022/06/09 05:37:24;;;;;;;18.93;11.27;;;;;;;16.58;49.02;100901.06;5023783;28;20353;-60
2022/06/09 05:45:29;;;;;;;24.60;11.17;;;;;;;16.65;48.96;100886.78;5024219;28;20296;-60
2022/06/09 05:47:59;;;;;;;27.13;11.00;;;;;;;16.47;48.05;100887.31;5023022;28;20343;-60
2022/06/09 05:50:31;;;;;;;26.07;11.90;;;;;;;16.28;48.98;100881.78;5025547;28;20330;-60
2022/06/09 05:53:02;;;;;;;23.07;11.53;;;;;;;16.20;49.05;100874.09;5025536;28;20289;-60
2022/06/09 05:55:33;;;;;;;27.47;11.33;;;;;;;16.01;49.28;100880.81;5024971;28;20289;-60
2022/06/09 05:58:03;;;;;;;20.20;11.60;;;;;;;15.84;49.69;100883.91;5025434;28;20868;-60
2022/06/09 06:00:34;;;;;;;23.23;12.03;;;;;;;15.60;49.56;100877.50;5022589;28;20308;-61
2022/06/09 06:03:04;;;;;;;20.60;11.90;;;;;;;15.58;50.16;100864.41;5024792;28;20283;-60
2022/06/09 06:08:24;;;;;;;21.48;11.10;;;;;;;15.96;49.77;100865.97;5024525;28;20471;-60
2022/06/09 06:10:56;;;;;;;27.23;11.70;;;;;;;16.12;49.02;100865.53;5025783;28;20063;-60
2022/06/09 06:13:26;;;;;;;22.67;12.40;;;;;;;16.30;48.77;100870.25;5025734;28;20327;-60
2022/06/09 06:15:57;;;;;;;35.57;12.33;;;;;;;16.40;49.22;100870.84;5025479;28;20299;-60
2022/06/09 06:18:47;;;;;;;24.33;11.67;;;;;;;16.49;48.89;100872.31;5025092;28;20273;-60
2022/06/09 06:21:20;;;;;;;23.23;11.63;;;;;;;16.11;49.27;100854.13;5025236;28;20779;-61
2022/06/09 06:23:50;;;;;;;31.50;12.87;;;;;;;15.81;48.96;100871.69;5025464;28;20395;-60
2022/06/09 06:26:21;;;;;;;44.07;12.63;;;;;;;15.35;50.27;100862.41;5025073;28;20288;-60
2022/06/09 06:28:52;;;;;;;25.17;11.27;;;;;;;15.00;50.75;100837.84;5024768;28;20285;-60
2022/06/09 06:31:22;;;;;;;25.87;11.80;;;;;;;14.97;51.21;100856.34;5024677;28;20284;-60
2022/06/09 06:33:52;;;;;;;24.97;11.73;;;;;;;14.91;51.62;100877.53;5024956;28;20480;-60
2022/06/09 06:36:24;;;;;;;23.90;12.20;;;;;;;14.85;52.31;100877.69;5024806;28;20292;-60
2022/06/09 06:38:55;;;;;;;26.60;12.87;;;;;;;14.74;52.88;100861.31;5025016;28;20299;-60
2022/06/09 06:41:26;;;;;;;27.07;12.33;;;;;;;14.79;53.17;100868.19;5024927;28;20300;-60
2022/06/09 06:43:56;;;;;;;27.67;12.53;;;;;;;14.50;52.77;100842.53;5025020;28;20355;-60
2022/06/09 06:46:27;;;;;;;25.57;11.03;;;;;;;14.38;52.95;100877.00;5025016;28;20285;-60
2022/06/09 06:48:58;;;;;;;28.50;12.27;;;;;;;14.13;53.37;100851.25;5024991;28;20292;-60
2022/06/09 06:51:30;;;;;;;37.03;12.70;;;;;;;14.22;53.93;100861.56;5024955;28;20293;-60
2022/06/09 06:54:00;;;;;;;21.70;11.23;;;;;;;14.04;53.52;100856.69;5024467;28;20293;-60
2022/06/09 06:56:31;;;;;;;33.80;11.80;;;;;;;13.85;54.16;100865.84;5024558;28;20327;-60
2022/06/09 06:59:01;;;;;;;23.73;11.63;;;;;;;13.64;54.18;100861.91;5024172;28;20522;-60
2022/06/09 07:01:31;;;;;;;26.37;11.77;;;;;;;13.46;54.52;100853.50;5024383;28;20308;-60
2022/06/09 07:04:03;;;;;;;23.60;11.30;;;;;;;13.38;55.21;100858.88;5024206;28;20292;-61
2022/06/09 07:06:35;;;;;;;22.53;11.77;;;;;;;13.40;54.88;100863.22;5024414;28;20284;-59
2022/06/09 07:09:05;;;;;;;26.77;12.07;;;;;;;13.29;55.59;100864.28;5024251;28;20285;-59
2022/06/09 07:11:36;;;;;;;24.03;11.10;;;;;;;13.23;55.56;100867.00;5023621;28;20502;-60
2022/06/09 07:14:06;;;;;;;25.77;12.82;;;;;;;13.16;55.33;100860.13;5023939;28;20479;-60
2022/06/09 07:16:36;;;;;;;27.03;13.47;;;;;;;12.90;55.91;100853.56;5022839;28;20414;-60
2022/06/09 07:19:16;;;;;;;40.20;13.80;;;;;;;12.75;56.79;100838.06;5024284;28;20780;-60
2022/06/09 07:21:48;;;;;;;38.00;14.35;;;;;;;12.66;56.08;100838.22;5023869;28;20308;-60
2022/06/09 07:24:18;;;;;;;45.33;18.33;;;;;;;12.61;56.66;100848.78;5024085;28;20570;-60
2022/06/09 07:26:49;;;;;;;30.35;13.57;;;;;;;12.49;56.95;100857.69;5023763;28;20053;-60
2022/06/09 07:29:19;;;;;;;25.55;13.80;;;;;;;12.43;57.63;100856.91;5023935;28;20045;-60
2022/06/09 07:31:50;;;;;;;29.13;14.75;;;;;;;12.39;57.68;100860.47;5024109;28;20100;-60
2022/06/09 07:34:21;;;;;;;35.00;18.75;;;;;;;12.42;58.03;100871.78;5023851;28;20061;-60
2022/06/09 07:36:53;;;;;;;58.60;28.85;;;;;;;12.34;58.02;100868.41;5023750;28;20260;-60
2022/06/09 07:39:24;;;;;;;82.95;40.55;;;;;;;12.35;58.11;100879.75;5023554;28;20288;-60
2022/06/09 07:41:57;;;;;;;87.72;44.42;;;;;;;12.23;58.22;100875.53;5023577;28;20166;-60
2022/06/09 07:44:28;;;;;;;33.08;14.88;;;;;;;12.14;58.69;100892.25;5023990;28;20045;-59
2022/06/09 07:46:58;;;;;;;98.10;43.90;;;;;;;12.07;58.88;100896.69;5022123;28;20075;-60
2022/06/09 07:49:29;;;;;;;113.60;53.42;;;;;;;12.13;58.81;100900.13;5022769;28;20053;-60
2022/06/09 07:52:01;;;;;;;87.30;39.20;;;;;;;11.93;58.98;100903.88;5022267;28;20050;-60
2022/06/09 07:54:31;;;;;;;101.97;42.17;;;;;;;11.73;59.21;100905.78;5021739;28;20061;-60
2022/06/09 07:57:02;;;;;;;28.98;13.38;;;;;;;11.59;59.52;100917.28;5023448;28;20060;-60
2022/06/09 07:59:32;;;;;;;73.03;27.45;;;;;;;11.54;60.14;100915.59;5023405;28;20065;-59
2022/06/09 08:02:05;;;;;;;46.47;14.77;;;;;;;11.47;60.31;100914.78;5023445;28;20080;-60
2022/06/09 08:04:38;;;;;;;52.05;21.33;;;;;;;11.42;60.63;100920.06;5022984;28;20057;-59
2022/06/09 08:07:10;;;;;;;31.02;13.13;;;;;;;11.40;59.64;100918.34;5023589;28;20061;-59
2022/06/09 08:09:40;;;;;;;23.58;12.60;;;;;;;11.19;59.84;100915.03;5023211;28;20046;-60
2022/06/09 08:12:11;;;;;;;28.40;13.40;;;;;;;11.09;60.67;100913.38;5023218;28;20050;-60
2022/06/09 08:14:42;;;;;;;26.15;12.30;;;;;;;10.97;60.80;100918.69;5023511;28;20065;-59
2022/06/09 08:17:13;;;;;;;25.55;11.90;;;;;;;10.90;60.87;100920.47;5023233;28;20067;-60
2022/06/09 08:19:45;;;;;;;25.33;13.57;;;;;;;10.75;60.59;100912.75;5023611;28;20049;-60
2022/06/09 08:22:17;;;;;;;32.50;14.75;;;;;;;10.62;61.06;100921.56;5022776;28;20057;-61
2022/06/09 08:24:48;;;;;;;51.75;19.52;;;;;;;10.62;61.48;100922.41;5023270;28;20316;-60
2022/06/09 08:27:18;;;;;;;33.38;13.60;;;;;;;10.57;61.59;100917.22;5023415;28;20072;-60
2022/06/09 08:29:49;;;;;;;26.73;12.80;;;;;;;10.62;62.07;100919.81;5023202;28;20531;-60
2022/06/09 08:32:19;;;;;;;29.27;12.98;;;;;;;10.59;61.78;100927.66;5023034;28;20046;-59
2022/06/09 08:34:49;;;;;;;31.23;14.80;;;;;;;10.51;61.81;100925.09;5022924;28;20062;-59
2022/06/09 08:37:21;;;;;;;55.63;13.60;;;;;;;10.41;61.75;100928.66;5023431;28;20050;-59
2022/06/09 08:39:52;;;;;;;28.00;11.25;;;;;;;10.38;61.92;100933.00;5023021;28;20335;-60
2022/06/09 08:42:36;;;;;;;32.33;12.40;;;;;;;10.31;61.69;100932.19;5022780;28;20295;-59
2022/06/09 08:45:11;;;;;;;28.25;13.20;;;;;;;10.20;61.88;100934.78;5023059;28;20066;-59
2022/06/09 08:47:46;;;;;;;24.63;11.43;;;;;;;10.09;62.16;100936.59;5022817;28;20099;-59
2022/06/09 08:50:21;;;;;;;31.17;11.95;;;;;;;9.59;62.30;100877.56;5022851;28;20100;-59
2022/06/09 08:52:58;;;;;;;51.00;13.38;;;;;;;9.66;62.75;100931.47;5025316;28;20057;-59
2022/06/09 08:55:36;;;;;;;25.23;11.48;;;;;;;9.75;63.52;100967.97;5027108;28;20060;-59
2022/06/09 08:58:15;;;;;;;27.23;12.40;;;;;;;9.67;63.42;100964.53;5026667;28;20049;-60
2022/06/09 09:00:50;;;;;;;40.37;16.70;;;;;;;9.67;64.04;100980.19;5026872;28;20085;-60
2022/06/09 09:03:28;;;;;;;44.03;16.60;;;;;;;9.62;64.13;100981.94;5025703;28;20065;-60
2022/06/09 09:06:04;;;;;;;30.45;14.65;;;;;;;9.43;64.43;100986.28;5025076;28;20053;-59
2022/06/09 09:08:37;;;;;;;35.30;13.98;;;;;;;9.33;64.77;100982.78;5025613;28;20272;-60
2022/06/09 09:11:29;;;;;;;40.17;13.35;;;;;;;9.38;64.93;100988.88;5025863;28;20058;-60
2022/06/09 09:14:03;;;;;;;43.60;15.38;;;;;;;9.12;65.20;100954.13;5025845;28;20307;-60
2022/06/09 09:16:44;;;;;;;30.02;12.98;;;;;;;9.03;65.06;100952.34;5024788;28;20053;-60
2022/06/09 09:19:26;;;;;;;40.10;14.73;;;;;;;9.15;65.54;100990.63;5024286;28;20091;-60
2022/06/09 09:22:06;;;;;;;34.47;13.32;;;;;;;9.01;65.75;100987.97;5020535;28;20061;-60
2022/06/09 09:24:50;;;;;;;28.45;13.32;;;;;;;8.91;66.09;100992.34;5023095;28;20300;-60
2022/06/09 09:27:34;;;;;;;25.33;12.18;;;;;;;8.82;66.57;100981.88;5020050;28;20045;-61
2022/06/09 09:30:17;;;;;;;31.15;12.80;;;;;;;8.88;66.82;100996.66;5023775;28;20049;-60
2022/06/09 09:32:50;;;;;;;24.27;12.57;;;;;;;8.78;66.65;100980.13;5023770;28;20276;-60
2022/06/09 09:35:22;;;;;;;25.15;11.55;;;;;;;8.79;66.98;100987.09;5025015;28;20046;-59
2022/06/09 09:37:54;;;;;;;27.30;11.27;;;;;;;8.67;67.10;100984.44;5025435;28;20336;-60
2022/06/09 09:40:31;;;;;;;24.30;12.05;;;;;;;8.57;67.47;100980.94;5025204;28;20124;-58
2022/06/09 09:43:07;;;;;;;29.90;11.55;;;;;;;8.58;67.35;100993.94;5024350;28;20092;-61
2022/06/09 09:45:47;;;;;;;27.67;12.52;;;;;;;8.50;67.78;100980.03;5025751;28;20121;-58
2022/06/09 09:48:33;;;;;;;33.00;15.23;;;;;;;8.58;67.91;100993.94;5025668;28;20256;-60
2022/06/09 09:51:10;;;;;;;35.60;14.52;;;;;;;8.57;67.87;100989.63;5025093;28;20634;-59
2022/06/09 09:53:52;;;;;;;26.83;13.90;;;;;;;8.43;68.06;100988.69;5025511;28;20084;-60
2022/06/09 09:56:34;;;;;;;24.30;12.70;;;;;;;8.39;68.35;100981.72;5025758;28;20085;-60
2022/06/09 09:59:20;;;;;;;26.45;10.30;;;;;;;8.42;68.61;100981.75;5008135;28;20064;-59
2022/06/09 10:10:42;;;;;;;28.80;12.63;;;;;;;8.34;69.00;100999.06;5005826;28;20056;-59
2022/06/09 10:13:18;;;;;;;35.55;13.85;;;;;;;8.23;68.89;100990.31;5005626;28;21010;-58
2022/06/09 10:15:51;;;;;;;36.33;14.50;;;;;;;8.27;69.48;100994.69;5005499;28;20308;-59
2022/06/09 10:18:38;;;;;;;24.73;11.55;;;;;;;8.33;69.06;100999.91;5005701;28;20706;-59
2022/06/09 10:21:25;;;;;;;30.67;13.00;;;;;;;8.30;69.08;101007.69;5005925;28;20152;-59
2022/06/09 10:24:01;;;;;;;23.50;12.90;;;;;;;8.29;69.42;101011.19;5005284;28;20050;-59
2022/06/09 10:26:36;;;;;;;21.90;11.60;;;;;;;8.36;69.23;101018.13;5005195;28;20233;-59
2022/06/09 10:29:18;;;;;;;26.60;13.23;;;;;;;8.33;69.04;100984.28;5005202;28;20509;-59
2022/06/09 10:31:54;;;;;;;27.63;12.52;;;;;;;8.36;68.92;101000.81;5005021;28;20058;-60
2022/06/09 10:34:37;;;;;;;20.63;11.50;;;;;;;8.47;68.80;101021.72;5005108;28;20049;-60
2022/06/09 10:37:21;;;;;;;21.83;11.15;;;;;;;8.42;69.29;101013.88;5003860;28;20066;-60
2022/06/09 10:39:58;;;;;;;23.67;11.60;;;;;;;8.37;69.30;101020.75;5005059;28;20065;-60
2022/06/09 10:42:35;;;;;;;23.27;11.43;;;;;;;8.36;69.49;101024.25;5004278;28;20548;-60
2022/06/09 10:45:21;;;;;;;22.20;10.55;;;;;;;8.28;70.05;101027.66;5004641;28;20125;-60
2022/06/09 10:56:55;;;;;;;31.42;16.23;;;;;;;8.13;71.29;101037.09;5003358;28;20396;-60
2022/06/09 10:59:35;;;;;;;35.65;16.60;;;;;;;8.07;71.73;101031.88;5024015;28;20100;-60
2022/06/09 11:02:15;;;;;;;19.52;8.85;;;;;;;8.10;71.34;101041.44;5024241;28;20333;-60
2022/06/09 11:04:48;;;;;;;9.55;5.85;;;;;;;8.00;69.90;101030.09;5024092;28;20069;-60
2022/06/09 11:07:54;;;;;;;16.52;6.05;;;;;;;7.93;69.75;101043.91;5024152;28;20053;-60
2022/06/09 11:10:37;;;;;;;9.40;5.55;;;;;;;7.83;69.70;101044.72;5024145;28;20054;-59
2022/06/09 11:13:40;;;;;;;11.20;5.90;;;;;;;8.08;69.64;101037.94;5024052;28;20056;-59
2022/06/09 11:16:17;;;;;;;8.55;5.40;;;;;;;8.10;68.76;101037.09;5021563;28;20099;-59
2022/06/09 11:19:07;;;;;;;8.07;4.47;;;;;;;7.94;68.95;101041.34;5023844;28;20049;-59
2022/06/09 11:21:45;;;;;;;8.55;4.65;;;;;;;7.57;69.34;100998.56;5022801;28;20062;-59
2022/06/09 11:24:25;;;;;;;7.05;4.22;;;;;;;7.57;69.47;101045.41;5022189;28;20057;-59
2022/06/09 11:27:00;;;;;;;;;;;;;;;7.46;70.12;101047.91;5023275;28;20067;-58
2022/06/09 11:29:51;;;;;;;7.03;4.30;;;;;;;7.40;70.37;101041.78;5022392;28;19925;-59
2022/06/09 11:32:31;;;;;;;6.80;4.25;;;;;;;7.29;70.51;101032.16;5022092;28;20065;-59
2022/06/09 11:35:18;;;;;;;;;;;;;;;7.23;70.88;101029.47;5023538;28;20251;-59
2022/06/09 11:38:12;;;;;;;8.05;4.78;;;;;;;7.19;70.97;101032.03;5023586;28;19929;-58
2022/06/09 11:40:49;;;;;;;6.80;4.20;;;;;;;7.24;70.92;101020.84;5023648;28;20072;-58
2022/06/09 11:43:42;;;;;;;7.32;4.30;;;;;;;7.40;70.64;101023.56;5021275;28;20333;-58
2022/06/09 11:46:20;;;;;;;7.38;3.60;;;;;;;7.43;70.41;101026.19;5021399;28;20053;-59
2022/06/09 11:48:54;;;;;;;6.80;3.95;;;;;;;7.41;70.23;101018.38;5022275;28;20336;-59
2022/06/09 11:51:29;;;;;;;7.22;3.83;;;;;;;7.34;70.35;101012.25;5022052;28;20052;-58
2022/06/09 11:54:04;;;;;;;6.32;4.07;;;;;;;7.21;70.13;100992.19;5023058;28;20404;-58
2022/06/09 11:56:43;;;;;;;9.20;4.47;;;;;;;7.02;70.75;100977.31;5023057;28;20061;-58
2022/06/09 11:59:21;;;;;;;9.02;4.00;;;;;;;7.13;71.05;100994.72;5022997;28;20448;-59
2022/06/09 12:02:32;;;;;;;6.43;3.85;;;;;;;7.18;71.61;100999.97;5023271;28;20042;-58
2022/06/09 12:05:22;;;;;;;8.23;4.28;;;;;;;6.94;71.78;100994.53;5019302;28;20107;-58
2022/06/09 12:08:11;;;;;;;7.90;4.03;;;;;;;6.85;72.94;100990.13;5023477;28;20065;-59
2022/06/09 12:11:08;;;;;;;8.80;4.65;;;;;;;6.76;73.03;100964.91;5023367;28;20060;-59
2022/06/09 12:13:55;;;;;;;5.65;4.00;;;;;;;6.83;73.71;100982.31;5023535;28;20050;-58